Terminal Aerodrome Forecast
Issued by NWS Grand Junction, CO

Home | Current Version | Previous Version | Text Only | Print | Product List | Glossary On
Versions: 1 2 3 4 5 6 7 8 9 10 11 12 13 14 15 16 17 18 19 20 21 22 23
920
FTUS45 KGJT 241123
TAFGJT
TAF
KGJT 241123Z 2412/2512 12014KT P6SM SCT250
     FM241400 15007KT P6SM SCT250
     FM241700 20008KT P6SM FEW100 SCT250
     FM242200 23012G20KT P6SM FEW100 SCT250
     FM250200 25007KT P6SM SCT250
     FM250500 16004KT P6SM SCT250=

USA.gov is the U.S. government's official web portal to all federal, state and local government web resources and services.